createdAt,value
2018-05-01T00:00:50.714Z,0.93
2018-05-01T00:03:18.942Z,0.90
2018-05-01T00:05:47.389Z,0.90
2018-05-01T00:08:16.388Z,0.75
2018-05-01T00:10:45.419Z,0.80
2018-05-01T00:13:13.699Z,0.73
2018-05-01T00:15:42.706Z,1.00
2018-05-01T00:18:10.975Z,0.88
2018-05-01T00:20:39.229Z,0.90
2018-05-01T00:23:07.471Z,0.85
2018-05-01T00:25:35.723Z,0.98
2018-05-01T00:28:03.999Z,1.40
2018-05-01T00:30:32.347Z,1.30
2018-05-01T00:33:00.595Z,1.40
2018-05-01T00:35:28.848Z,1.33
2018-05-01T00:37:57.091Z,1.30
2018-05-01T00:40:26.310Z,1.15
2018-05-01T00:42:55.410Z,1.20
2018-05-01T00:45:24.440Z,1.67
2018-05-01T00:47:53.472Z,1.80
2018-05-01T00:50:21.725Z,1.65
2018-05-01T00:52:50.742Z,1.67
2018-05-01T00:55:19.748Z,1.90
2018-05-01T00:57:48.772Z,1.60
2018-05-01T01:00:17.068Z,1.77
2018-05-01T01:02:45.325Z,1.50
2018-05-01T01:05:13.572Z,1.90
2018-05-01T01:07:41.834Z,1.40
2018-05-01T01:10:10.082Z,1.80
2018-05-01T01:12:38.362Z,1.80
2018-05-01T01:15:06.615Z,1.55
2018-05-01T01:17:34.881Z,1.50
2018-05-01T01:20:03.148Z,1.60
2018-05-01T01:22:31.387Z,1.30
2018-05-01T01:24:59.637Z,1.50
2018-05-01T01:27:28.665Z,1.35
2018-05-01T01:29:56.921Z,1.70
2018-05-01T01:32:25.179Z,1.80
2018-05-01T01:34:53.431Z,1.83
2018-05-01T01:37:20.879Z,1.77
2018-05-01T01:39:49.096Z,1.90
2018-05-01T01:42:16.646Z,1.80
2018-05-01T01:44:44.859Z,2.00
2018-05-01T01:47:12.322Z,2.03
2018-05-01T01:49:39.800Z,1.80
2018-05-01T01:52:07.243Z,2.50
2018-05-01T01:54:35.496Z,1.98
2018-05-01T01:57:02.990Z,2.17
2018-05-01T01:59:31.954Z,2.15
2018-05-01T02:01:59.419Z,2.30
2018-05-01T02:04:26.905Z,2.13
2018-05-01T02:06:54.371Z,2.42
2018-05-01T02:09:21.856Z,2.07
2018-05-01T02:11:49.312Z,2.40
2018-05-01T02:14:16.759Z,2.62
2018-05-01T02:16:44.207Z,2.60
2018-05-01T02:19:12.447Z,2.80
2018-05-01T02:21:39.929Z,3.10
2018-05-01T02:24:07.411Z,3.40
2018-05-01T02:26:34.903Z,3.23
2018-05-01T02:29:03.116Z,3.28
2018-05-01T02:31:30.571Z,3.90
2018-05-01T02:33:58.803Z,4.45
2018-05-01T02:36:26.269Z,4.10
2018-05-01T02:38:53.718Z,3.92
2018-05-01T02:41:21.314Z,3.73
2018-05-01T02:43:48.667Z,4.12
2018-05-01T02:46:16.132Z,3.70
2018-05-01T02:48:43.594Z,3.70
2018-05-01T02:51:11.825Z,4.30
2018-05-01T02:53:39.276Z,4.62
2018-05-01T02:56:06.761Z,5.03
2018-05-01T02:58:34.201Z,5.03
2018-05-01T03:01:01.650Z,5.33
2018-05-01T03:03:29.891Z,6.37
2018-05-01T03:05:57.348Z,5.97
2018-05-01T03:08:24.797Z,7.00
2018-05-01T03:10:52.292Z,8.77
2018-05-01T03:13:19.748Z,7.00
2018-05-01T03:15:47.306Z,8.30
2018-05-01T03:18:15.538Z,8.23
2018-05-01T03:20:42.999Z,8.23
2018-05-01T03:23:10.459Z,7.60
2018-05-01T03:25:37.940Z,8.07
2018-05-01T03:28:05.396Z,7.50
2018-05-01T03:30:32.842Z,6.97
2018-05-01T03:33:01.083Z,6.50
2018-05-01T03:35:28.583Z,7.60
2018-05-01T03:37:56.045Z,5.50
2018-05-01T03:40:23.503Z,5.60
2018-05-01T03:42:50.959Z,4.80
2018-05-01T03:45:18.407Z,5.00
2018-05-01T03:47:45.867Z,5.43
2018-05-01T03:50:13.316Z,5.12
2018-05-01T03:52:40.779Z,5.77
2018-05-01T03:55:08.249Z,5.85
2018-05-01T03:57:35.699Z,5.75
2018-05-01T04:00:03.165Z,6.55
2018-05-01T04:02:30.699Z,7.47
2018-05-01T04:04:58.352Z,8.63
2018-05-01T04:07:25.795Z,8.15
2018-05-01T04:09:54.039Z,9.27
2018-05-01T04:12:21.617Z,8.82
2018-05-01T04:14:49.177Z,9.57
2018-05-01T04:17:16.632Z,10.38
2018-05-01T04:19:44.918Z,10.13
2018-05-01T04:22:13.151Z,10.93
2018-05-01T04:24:40.631Z,10.17
2018-05-01T04:27:08.172Z,10.65
2018-05-01T04:29:35.614Z,11.87
2018-05-01T04:32:03.079Z,9.77
2018-05-01T04:34:30.547Z,10.20
2018-05-01T04:36:58.016Z,10.02
2018-05-01T04:39:25.543Z,9.68
2018-05-01T04:41:53.004Z,9.57
2018-05-01T04:44:20.477Z,8.75
2018-05-01T04:46:47.943Z,9.18
2018-05-01T04:49:15.399Z,9.20
2018-05-01T04:51:43.736Z,8.83
2018-05-01T04:54:12.102Z,8.70
2018-05-01T04:56:39.569Z,8.63
2018-05-01T04:59:07.024Z,9.18
2018-05-01T05:01:35.301Z,9.10
2018-05-01T05:04:02.751Z,8.38
2018-05-01T05:06:30.210Z,7.80
2018-05-01T05:08:57.692Z,8.98
2018-05-01T05:11:25.144Z,7.53
2018-05-01T05:13:52.615Z,7.85
2018-05-01T05:16:20.131Z,6.85
2018-05-01T05:18:48.359Z,7.18
2018-05-01T05:21:15.799Z,7.60
2018-05-01T05:23:43.383Z,7.87
2018-05-01T05:26:10.867Z,6.80
2018-05-01T05:28:38.328Z,7.33
2018-05-01T05:31:05.816Z,6.82
2018-05-01T05:33:33.371Z,7.07
2018-05-01T05:36:01.038Z,6.77
2018-05-01T05:38:28.576Z,7.45
2018-05-01T05:40:56.049Z,8.10
2018-05-01T05:43:23.501Z,7.17
2018-05-01T05:45:50.981Z,7.12
2018-05-01T05:48:18.449Z,7.47
2018-05-01T05:50:45.909Z,7.25
2018-05-01T05:53:13.443Z,7.17
2018-05-01T05:55:41.723Z,7.28
2018-05-01T05:58:09.227Z,6.53
2018-05-01T06:00:36.692Z,8.05
2018-05-01T06:03:04.144Z,7.00
2018-05-01T06:05:31.615Z,7.28
2018-05-01T06:07:59.098Z,7.50
2018-05-01T06:10:26.620Z,8.32
2018-05-01T06:12:54.093Z,7.20
2018-05-01T06:15:21.592Z,8.10
2018-05-01T06:17:49.064Z,6.80
2018-05-01T06:20:17.292Z,6.67
2018-05-01T06:22:44.756Z,6.35
2018-05-01T06:25:12.244Z,6.27
2018-05-01T06:27:39.932Z,6.40
2018-05-01T06:30:07.409Z,5.83
2018-05-01T06:32:34.876Z,7.03
2018-05-01T06:35:02.411Z,7.30
2018-05-01T06:37:29.989Z,6.97
2018-05-01T06:39:57.464Z,8.43
2018-05-01T06:42:24.936Z,8.20
2018-05-01T06:44:52.416Z,7.70
2018-05-01T06:47:19.862Z,7.80
2018-05-01T06:49:47.337Z,7.32
2018-05-01T06:52:14.801Z,8.20
2018-05-01T06:54:42.330Z,9.23
2018-05-01T06:57:11.390Z,8.30
2018-05-01T06:59:38.905Z,8.30
2018-05-01T07:02:06.408Z,7.95
2018-05-01T07:04:34.794Z,7.50
2018-05-01T07:07:02.191Z,6.85
2018-05-01T07:09:29.666Z,5.97
2018-05-01T07:11:57.132Z,6.47
2018-05-01T07:14:24.614Z,5.80
2018-05-01T07:16:52.159Z,6.35
2018-05-01T07:19:20.567Z,6.35
2018-05-01T07:21:48.816Z,5.73
2018-05-01T07:24:16.278Z,5.35
2018-05-01T07:26:43.745Z,5.70
2018-05-01T07:29:11.219Z,6.65
2018-05-01T07:31:38.672Z,6.35
2018-05-01T07:34:06.128Z,5.30
2018-05-01T07:36:33.607Z,5.93
2018-05-01T07:39:01.055Z,6.22
2018-05-01T07:41:28.519Z,6.00
2018-05-01T07:43:56.005Z,6.30
2018-05-01T07:46:23.452Z,5.47
2018-05-01T07:48:50.934Z,5.72
2018-05-01T07:51:18.405Z,5.40
2018-05-01T07:53:45.867Z,5.80
2018-05-01T07:56:13.359Z,6.10
2018-05-01T07:58:40.853Z,6.28
2018-05-01T08:01:08.572Z,6.15
2018-05-01T08:03:36.812Z,5.72
2018-05-01T08:06:04.343Z,5.87
2018-05-01T08:08:32.650Z,5.30
2018-05-01T08:11:00.155Z,5.80
2018-05-01T08:13:27.638Z,6.17
2018-05-01T08:15:55.116Z,5.57
2018-05-01T08:18:22.599Z,5.67
2018-05-01T08:20:50.092Z,6.05
2018-05-01T08:23:18.533Z,5.57
2018-05-01T08:25:46.017Z,5.40
2018-05-01T08:28:13.526Z,5.60
2018-05-01T08:30:41.015Z,5.55
2018-05-01T08:33:08.489Z,6.03
2018-05-01T08:35:35.997Z,6.20
2018-05-01T08:38:03.478Z,6.35
2018-05-01T08:40:30.956Z,6.73
2018-05-01T08:42:58.433Z,7.10
2018-05-01T08:45:25.962Z,6.23
2018-05-01T08:47:53.364Z,9.37
2018-05-01T08:50:20.862Z,6.17
2018-05-01T08:52:49.095Z,6.37
2018-05-01T08:55:16.558Z,6.07
2018-05-01T08:57:44.077Z,6.37
2018-05-01T09:00:11.548Z,6.23
2018-05-01T09:02:39.059Z,6.40
2018-05-01T09:05:06.567Z,6.32
2018-05-01T09:07:34.029Z,5.63
2018-05-01T09:10:01.510Z,6.03
2018-05-01T09:12:29.017Z,5.47
2018-05-01T09:14:57.339Z,5.90
2018-05-01T09:17:24.940Z,5.77
2018-05-01T09:19:52.432Z,5.60
2018-05-01T09:22:19.911Z,5.03
2018-05-01T09:24:47.955Z,5.30
2018-05-01T09:27:15.547Z,4.10
2018-05-01T09:29:43.038Z,4.80
2018-05-01T09:32:10.634Z,4.53
2018-05-01T09:34:38.121Z,4.63
2018-05-01T09:37:05.580Z,4.37
2018-05-01T09:39:33.837Z,4.00
2018-05-01T09:42:01.307Z,4.00
2018-05-01T09:44:28.784Z,4.20
2018-05-01T09:46:56.246Z,5.17
2018-05-01T09:49:23.750Z,4.27
2018-05-01T09:51:51.223Z,4.83
2018-05-01T09:54:20.256Z,4.10
2018-05-01T09:56:48.532Z,4.50
2018-05-01T09:59:16.824Z,4.77
2018-05-01T10:01:45.149Z,4.97
2018-05-01T10:04:13.541Z,4.60
2018-05-01T10:06:42.225Z,4.83
2018-05-01T10:09:10.560Z,5.33
2018-05-01T10:11:39.542Z,4.77
2018-05-01T10:14:07.807Z,4.77
2018-05-01T10:16:36.107Z,4.93
2018-05-01T10:19:04.376Z,4.97
2018-05-01T10:21:33.405Z,4.67
2018-05-01T10:24:01.683Z,5.77
2018-05-01T10:26:29.973Z,4.47
2018-05-01T10:28:58.294Z,5.27
2018-05-01T10:31:26.596Z,5.37
2018-05-01T10:33:54.869Z,4.90
2018-05-01T10:36:23.140Z,4.70
2018-05-01T10:38:51.499Z,4.63
2018-05-01T10:41:19.727Z,5.30
2018-05-01T10:43:48.009Z,5.70
2018-05-01T10:46:17.051Z,5.60
2018-05-01T10:48:45.329Z,6.00
2018-05-01T10:51:13.601Z,5.87
2018-05-01T10:53:41.880Z,5.90
2018-05-01T10:56:10.169Z,5.63
2018-05-01T10:58:38.439Z,6.03
2018-05-01T11:01:07.484Z,5.73
2018-05-01T11:03:35.776Z,5.73
2018-05-01T11:06:04.028Z,6.10
2018-05-01T11:08:32.355Z,6.73
2018-05-01T11:11:00.637Z,6.70
2018-05-01T11:13:30.178Z,6.62
2018-05-01T11:15:58.443Z,6.43
2018-05-01T11:18:27.511Z,5.97
2018-05-01T11:20:55.777Z,6.23
2018-05-01T11:23:24.083Z,6.68
2018-05-01T11:25:52.367Z,6.87
2018-05-01T11:28:20.620Z,6.53
2018-05-01T11:30:48.893Z,6.27
2018-05-01T11:33:17.935Z,7.00
2018-05-01T11:35:46.191Z,6.40
2018-05-01T11:38:15.219Z,5.93
2018-05-01T11:40:43.493Z,5.10
2018-05-01T11:43:12.560Z,6.37
2018-05-01T11:45:40.829Z,5.40
2018-05-01T11:48:09.192Z,5.80
2018-05-01T11:50:37.477Z,5.97
2018-05-01T11:53:06.509Z,7.50
2018-05-01T11:55:34.780Z,7.10
2018-05-01T11:58:03.039Z,7.43
2018-05-01T12:00:32.105Z,6.50
2018-05-01T12:03:00.382Z,4.90
2018-05-01T12:05:28.780Z,4.67
2018-05-01T12:07:57.039Z,4.63
2018-05-01T12:10:25.362Z,4.53
2018-05-01T12:12:54.416Z,4.73
2018-05-01T12:15:22.675Z,5.03
2018-05-01T12:17:50.939Z,5.13
2018-05-01T12:20:19.328Z,5.17
2018-05-01T12:22:47.591Z,4.70
2018-05-01T12:25:16.651Z,4.73
2018-05-01T12:27:44.955Z,3.93
2018-05-01T12:30:13.241Z,3.73
2018-05-01T12:32:41.514Z,3.73
2018-05-01T12:35:09.865Z,3.57
2018-05-01T12:37:38.897Z,3.63
2018-05-01T12:40:07.172Z,3.40
2018-05-01T12:42:35.429Z,3.67
2018-05-01T12:45:03.680Z,4.30
2018-05-01T12:47:31.931Z,3.57
2018-05-01T12:50:00.235Z,3.30
2018-05-01T12:52:28.531Z,3.57
2018-05-01T12:54:56.775Z,3.53
2018-05-01T12:57:25.053Z,4.00
2018-05-01T12:59:53.303Z,3.13
2018-05-01T13:02:21.567Z,3.77
2018-05-01T13:04:50.600Z,3.47
2018-05-01T13:07:18.861Z,3.20
2018-05-01T13:09:47.911Z,3.47
2018-05-01T13:12:16.263Z,3.20
2018-05-01T13:14:45.473Z,3.43
2018-05-01T13:17:13.759Z,3.30
2018-05-01T13:19:42.036Z,2.83
2018-05-01T13:22:10.318Z,3.30
2018-05-01T13:24:38.698Z,2.70
2018-05-01T13:27:06.970Z,2.90
2018-05-01T13:29:35.240Z,3.07
2018-05-01T13:32:03.510Z,2.40
2018-05-01T13:34:32.594Z,2.63
2018-05-01T13:37:00.856Z,3.13
2018-05-01T13:39:29.149Z,2.83
2018-05-01T13:41:58.253Z,2.80
2018-05-01T13:44:26.517Z,3.07
2018-05-01T13:46:54.788Z,3.10
2018-05-01T13:49:23.826Z,3.60
2018-05-01T13:51:52.116Z,3.23
2018-05-01T13:54:20.377Z,3.53
2018-05-01T13:56:48.655Z,2.93
2018-05-01T13:59:17.699Z,3.65
2018-05-01T14:01:45.959Z,3.73
2018-05-01T14:04:15.004Z,3.92
2018-05-01T14:06:43.280Z,4.07
2018-05-01T14:09:11.554Z,3.28
2018-05-01T14:11:40.643Z,3.63
2018-05-01T14:14:08.921Z,3.77
2018-05-01T14:16:37.179Z,3.40
2018-05-01T14:19:05.454Z,3.30
2018-05-01T14:21:33.712Z,3.30
2018-05-01T14:24:02.762Z,3.20
2018-05-01T14:26:31.104Z,3.57
2018-05-01T14:28:59.395Z,3.07
2018-05-01T14:31:27.678Z,2.72
2018-05-01T14:33:55.963Z,3.00
2018-05-01T14:36:24.248Z,3.43
2018-05-01T14:38:52.524Z,3.43
2018-05-01T14:41:20.877Z,3.00
2018-05-01T14:43:49.157Z,3.07
2018-05-01T14:46:18.189Z,3.23
2018-05-01T14:48:46.475Z,2.87
2018-05-01T14:51:14.733Z,3.00
2018-05-01T14:53:43.829Z,2.90
2018-05-01T14:56:12.102Z,2.60
2018-05-01T14:58:40.391Z,2.30
2018-05-01T15:01:10.248Z,2.30
2018-05-01T15:03:39.396Z,2.40
2018-05-01T15:06:07.755Z,2.30
2018-05-01T15:08:36.021Z,2.27
2018-05-01T15:11:04.303Z,2.53
2018-05-01T15:13:32.556Z,2.33
2018-05-01T15:16:00.806Z,2.77
2018-05-01T15:18:29.848Z,2.60
2018-05-01T15:20:58.126Z,2.70
2018-05-01T15:23:27.135Z,2.60
2018-05-01T15:25:55.408Z,2.70
2018-05-01T15:28:24.436Z,2.80
2018-05-01T15:30:52.714Z,2.77
2018-05-01T15:33:21.824Z,2.50
2018-05-01T15:35:50.013Z,2.77
2018-05-01T15:38:19.048Z,2.70
2018-05-01T15:40:47.447Z,2.63
2018-05-01T15:43:15.734Z,2.90
2018-05-01T15:45:44.013Z,2.90
2018-05-01T15:48:12.367Z,2.97
2018-05-01T15:50:40.657Z,3.10
2018-05-01T15:53:09.009Z,2.80
2018-05-01T15:55:37.278Z,2.93
2018-05-01T15:58:05.559Z,3.03
2018-05-01T16:00:33.824Z,2.77
2018-05-01T16:03:02.870Z,3.20
2018-05-01T16:05:31.132Z,3.50
2018-05-01T16:08:00.240Z,3.13
2018-05-01T16:10:28.524Z,3.30
2018-05-01T16:12:57.597Z,3.00
2018-05-01T16:15:25.849Z,3.10
2018-05-01T16:17:54.134Z,3.10
2018-05-01T16:20:23.156Z,3.00
2018-05-01T16:22:51.411Z,3.17
2018-05-01T16:25:19.728Z,2.90
2018-05-01T16:27:47.987Z,2.90
2018-05-01T16:30:16.247Z,3.20
2018-05-01T16:32:44.523Z,3.60
2018-05-01T16:35:12.812Z,2.80
2018-05-01T16:37:41.102Z,3.03
2018-05-01T16:40:09.735Z,3.30
2018-05-01T16:42:38.027Z,3.53
2018-05-01T16:45:06.336Z,3.37
2018-05-01T16:47:35.398Z,3.80
2018-05-01T16:50:03.739Z,3.73
2018-05-01T16:52:32.800Z,4.07
2018-05-01T16:55:01.154Z,3.70
2018-05-01T16:57:29.411Z,3.70
2018-05-01T16:59:57.736Z,3.70
2018-05-01T17:02:26.827Z,4.03
2018-05-01T17:04:55.865Z,3.80
2018-05-01T17:07:24.145Z,3.83
2018-05-01T17:09:52.468Z,3.70
2018-05-01T17:12:20.962Z,5.93
2018-05-01T17:14:49.338Z,5.30
2018-05-01T17:17:17.608Z,4.30
2018-05-01T17:19:45.875Z,4.50
2018-05-01T17:22:15.931Z,4.25
2018-05-01T17:24:44.951Z,4.10
2018-05-01T17:27:13.239Z,4.20
2018-05-01T17:29:41.637Z,4.13
2018-05-01T17:32:09.958Z,4.40
2018-05-01T17:34:38.215Z,4.90
2018-05-01T17:37:06.481Z,4.20
2018-05-01T17:39:35.512Z,3.70
2018-05-01T17:42:04.154Z,4.43
2018-05-01T17:44:32.467Z,4.40
2018-05-01T17:47:01.687Z,4.20
2018-05-01T17:49:30.759Z,4.30
2018-05-01T17:51:59.331Z,3.93
2018-05-01T17:54:27.889Z,3.83
2018-05-01T17:56:57.256Z,3.37
2018-05-01T17:59:25.643Z,3.63
2018-05-01T18:01:55.033Z,3.90
2018-05-01T18:04:23.314Z,3.43
2018-05-01T18:06:52.428Z,3.30
2018-05-01T18:09:21.450Z,3.57
2018-05-01T18:11:49.733Z,3.30
2018-05-01T18:14:18.946Z,4.03
2018-05-01T18:16:47.202Z,3.50
2018-05-01T18:19:16.232Z,3.80
2018-05-01T18:21:45.263Z,3.30
2018-05-01T18:24:14.354Z,3.40
2018-05-01T18:26:42.625Z,3.40
2018-05-01T18:29:10.904Z,3.10
2018-05-01T18:31:39.940Z,3.40
2018-05-01T18:34:08.230Z,3.20
2018-05-01T18:36:36.503Z,4.00
2018-05-01T18:39:05.568Z,3.60
2018-05-01T18:41:33.821Z,3.40
2018-05-01T18:44:02.099Z,3.77
2018-05-01T18:46:30.628Z,3.47
2018-05-01T18:48:58.983Z,3.43
2018-05-01T18:51:27.286Z,3.40
2018-05-01T18:53:55.549Z,3.47
2018-05-01T18:56:24.567Z,3.27
2018-05-01T18:58:53.580Z,3.23
2018-05-01T19:01:21.854Z,3.50
2018-05-01T19:03:50.883Z,3.10
2018-05-01T19:06:19.135Z,3.00
2018-05-01T19:08:47.430Z,3.27
2018-05-01T19:11:15.723Z,3.63
2018-05-01T19:13:44.019Z,3.80
2018-05-01T19:16:12.320Z,3.30
2018-05-01T19:18:41.440Z,3.30
2018-05-01T19:21:10.566Z,3.67
2018-05-01T19:23:38.853Z,3.63
2018-05-01T19:26:07.133Z,3.20
2018-05-01T19:28:35.443Z,3.90
2018-05-01T19:31:03.708Z,3.33
2018-05-01T19:33:32.037Z,3.40
2018-05-01T19:36:00.303Z,3.50
2018-05-01T19:38:28.891Z,3.20
2018-05-01T19:40:57.185Z,3.53
2018-05-01T19:43:25.470Z,3.73
2018-05-01T19:45:54.496Z,3.40
2018-05-01T19:48:22.775Z,3.60
2018-05-01T19:50:51.096Z,3.93
2018-05-01T19:53:19.318Z,3.90
2018-05-01T19:55:47.635Z,4.10
2018-05-01T19:58:16.699Z,3.67
2018-05-01T20:00:44.970Z,3.30
2018-05-01T20:03:13.293Z,3.70
2018-05-01T20:05:41.518Z,3.80
2018-05-01T20:08:09.819Z,3.70
2018-05-01T20:10:38.146Z,3.30
2018-05-01T20:13:06.402Z,4.10
2018-05-01T20:15:34.696Z,3.87
2018-05-01T20:18:03.007Z,3.80
2018-05-01T20:20:31.273Z,4.40
2018-05-01T20:22:59.558Z,3.83
2018-05-01T20:25:27.833Z,3.90
2018-05-01T20:27:56.859Z,3.53
2018-05-01T20:30:26.018Z,3.53
2018-05-01T20:32:54.291Z,3.70
2018-05-01T20:35:22.536Z,4.40
2018-05-01T20:37:50.802Z,4.23
2018-05-01T20:40:19.835Z,4.03
2018-05-01T20:42:48.132Z,3.83
2018-05-01T20:45:16.403Z,3.77
2018-05-01T20:47:44.791Z,3.83
2018-05-01T20:50:13.860Z,3.83
2018-05-01T20:52:42.274Z,3.17
2018-05-01T20:55:10.527Z,3.07
2018-05-01T20:57:38.805Z,3.70
2018-05-01T21:00:07.107Z,3.30
2018-05-01T21:02:35.379Z,2.97
2018-05-01T21:05:03.660Z,3.13
2018-05-01T21:07:31.938Z,3.17
2018-05-01T21:10:00.973Z,3.05
2018-05-01T21:12:29.244Z,3.25
2018-05-01T21:14:57.512Z,3.70
2018-05-01T21:17:26.551Z,3.77
2018-05-01T21:19:54.811Z,3.20
2018-05-01T21:22:23.081Z,3.05
2018-05-01T21:24:51.356Z,3.47
2018-05-01T21:27:19.611Z,3.40
2018-05-01T21:29:47.893Z,3.60
2018-05-01T21:32:16.177Z,3.20
2018-05-01T21:34:44.459Z,3.25
2018-05-01T21:37:13.515Z,3.40
2018-05-01T21:39:41.800Z,3.22
2018-05-01T21:42:10.092Z,3.07
2018-05-01T21:44:38.370Z,3.08
2018-05-01T21:47:06.620Z,3.70
2018-05-01T21:49:35.676Z,3.83
2018-05-01T21:52:03.958Z,3.27
2018-05-01T21:54:32.254Z,3.30
2018-05-01T21:57:00.518Z,3.30
2018-05-01T21:59:28.806Z,3.03
2018-05-01T22:01:57.998Z,3.20
2018-05-01T22:04:27.038Z,3.58
2018-05-01T22:06:55.310Z,4.74
2018-05-01T22:09:24.334Z,4.57
2018-05-01T22:11:53.731Z,4.56
2018-05-01T22:14:22.041Z,4.60
2018-05-01T22:16:50.314Z,4.12
2018-05-01T22:19:19.341Z,4.57
2018-05-01T22:21:47.605Z,4.20
2018-05-01T22:24:18.174Z,4.77
2018-05-01T22:26:46.452Z,4.80
2018-05-01T22:29:15.564Z,4.57
2018-05-01T22:31:43.889Z,5.20
2018-05-01T22:34:12.183Z,5.65
2018-05-01T22:36:40.493Z,4.72
2018-05-01T22:39:08.921Z,5.33
2018-05-01T22:41:37.927Z,6.00
2018-05-01T22:44:07.922Z,5.30
2018-05-01T22:46:36.165Z,5.70
2018-05-01T22:49:04.420Z,5.62
2018-05-01T22:51:32.743Z,6.00
2018-05-01T22:54:01.609Z,6.50
2018-05-01T22:56:30.628Z,6.43
2018-05-01T22:58:59.671Z,6.20
2018-05-01T23:01:27.932Z,7.10
2018-05-01T23:03:56.940Z,6.95
2018-05-01T23:06:25.963Z,6.93
2018-05-01T23:08:54.212Z,6.18
2018-05-01T23:11:22.536Z,6.33
2018-05-01T23:13:51.571Z,6.37
2018-05-01T23:16:19.811Z,6.40
2018-05-01T23:18:48.093Z,6.40
2018-05-01T23:21:16.367Z,6.87
2018-05-01T23:23:44.630Z,7.68
2018-05-01T23:26:12.914Z,6.70
2018-05-01T23:28:41.179Z,7.10
2018-05-01T23:31:10.201Z,6.80
2018-05-01T23:33:38.442Z,6.70
2018-05-01T23:36:07.493Z,7.07
2018-05-01T23:38:36.499Z,7.70
2018-05-01T23:41:04.752Z,7.30
2018-05-01T23:43:33.016Z,7.15
2018-05-01T23:46:01.265Z,6.62
2018-05-01T23:48:29.513Z,7.57
2018-05-01T23:50:57.793Z,7.25
2018-05-01T23:53:26.050Z,6.60
2018-05-01T23:55:54.338Z,7.18
2018-05-01T23:58:23.352Z,6.33
